JAF8HC GCTS-EBOS
Flight info
| Callsign | JAF8HC |
|---|---|
| Flight time | 3h 50m |
| Altitude | 36000 |
| Route | KONBA UN866 BEXAL DCT ULVOT DCT GODGI DCT MANEL DCT MAGUM DCT NSA DCT ABRAT DCT PINOX DCT RIVRO DCT TOSDI DCT ZMR DCT NUBLO DCT RONSI DCT DELOG DCT DIDIG DCT USODA DCT ERCUT DCT DITAL UN873 BAZOS DCT BELDI DCT VEKIN DCT ADUTO N873 FERDI |
| Aircraft | B38M/M-SDE1FGHILORVWXY/HB1 |
Departure
| Time | 2026-05-05 10:39 |
|---|---|
| Airport | Tenerife Sur Airport (GCTS) |
Arrival
| Time | 2026-05-05 14:29 |
|---|---|
| Airport | Ostend-Bruges International Airport (EBOS) |
| Time | Latitude | Longitude | Altitude | Speed | Heading |
|---|---|---|---|---|---|
| 2026-05-05 10:14 | 28.04736 | -16.57628 | 204 ft | 0 kts | 341° |
| 2026-05-05 10:30 | 28.04719 | -16.57621 | 213 ft | 4 kts | 341° |
| 2026-05-05 10:30 | 28.04694 | -16.57611 | 210 ft | 4 kts | 341° |
| 2026-05-05 10:30 | 28.04673 | -16.57601 | 208 ft | 4 kts | 320° |
| 2026-05-05 10:30 | 28.04661 | -16.57578 | 213 ft | 4 kts | 270° |
| 2026-05-05 10:31 | 28.04667 | -16.57549 | 213 ft | 4 kts | 248° |
| 2026-05-05 10:31 | 28.04674 | -16.57528 | 213 ft | 0 kts | 249° |
| 2026-05-05 10:34 | 28.04674 | -16.57529 | 213 ft | 1 kts | 249° |
| 2026-05-05 10:34 | 28.04662 | -16.57564 | 212 ft | 8 kts | 250° |
| 2026-05-05 10:34 | 28.04639 | -16.57636 | 203 ft | 11 kts | 250° |
| 2026-05-05 10:34 | 28.04595 | -16.57705 | 210 ft | 11 kts | 182° |
| 2026-05-05 10:35 | 28.04516 | -16.57677 | 206 ft | 12 kts | 166° |
| 2026-05-05 10:35 | 28.04461 | -16.57741 | 206 ft | 13 kts | 249° |
| 2026-05-05 10:35 | 28.04426 | -16.57843 | 205 ft | 15 kts | 249° |
| 2026-05-05 10:35 | 28.04386 | -16.57958 | 210 ft | 17 kts | 248° |
| 2026-05-05 10:36 | 28.04341 | -16.58086 | 201 ft | 18 kts | 248° |
| 2026-05-05 10:36 | 28.04293 | -16.58226 | 200 ft | 20 kts | 249° |
| 2026-05-05 10:36 | 28.04241 | -16.58376 | 201 ft | 21 kts | 249° |
| 2026-05-05 10:36 | 28.04188 | -16.58538 | 207 ft | 23 kts | 255° |
| 2026-05-05 10:37 | 28.04133 | -16.58711 | 200 ft | 24 kts | 249° |
| 2026-05-05 10:37 | 28.04086 | -16.58846 | 199 ft | 10 kts | 240° |
| 2026-05-05 10:37 | 28.04023 | -16.58874 | 195 ft | 11 kts | 162° |
| 2026-05-05 10:37 | 28.03975 | -16.58812 | 196 ft | 10 kts | 115° |
| 2026-05-05 10:38 | 28.03941 | -16.58740 | 207 ft | 11 kts | 114° |
| 2026-05-05 10:38 | 28.03958 | -16.58640 | 201 ft | 20 kts | 68° |
| 2026-05-05 10:38 | 28.04100 | -16.58235 | 206 ft | 90 kts | 68° |
| 2026-05-05 10:38 | 28.04406 | -16.57363 | 212 ft | 148 kts | 68° |
| 2026-05-05 10:39 | 28.04796 | -16.56170 | 589 ft | 166 kts | 74° |
| 2026-05-05 10:39 | 28.05166 | -16.54892 | 1179 ft | 171 kts | 69° |
| 2026-05-05 10:39 | 28.05602 | -16.53660 | 1967 ft | 172 kts | 66° |
| 2026-05-05 10:39 | 28.06095 | -16.52326 | 2367 ft | 196 kts | 66° |
| 2026-05-05 10:40 | 28.06647 | -16.50804 | 2779 ft | 221 kts | 66° |
| 2026-05-05 10:40 | 28.07255 | -16.49110 | 3235 ft | 243 kts | 67° |
| 2026-05-05 10:40 | 28.07913 | -16.47257 | 3770 ft | 262 kts | 67° |
| 2026-05-05 10:40 | 28.08599 | -16.45292 | 4480 ft | 271 kts | 69° |
| 2026-05-05 10:41 | 28.09256 | -16.43266 | 5270 ft | 279 kts | 69° |
| 2026-05-05 10:41 | 28.09933 | -16.41165 | 5994 ft | 286 kts | 70° |
| 2026-05-05 10:41 | 28.10617 | -16.39049 | 6845 ft | 289 kts | 70° |
| 2026-05-05 10:41 | 28.11321 | -16.36876 | 7520 ft | 297 kts | 70° |
| 2026-05-05 10:42 | 28.12757 | -16.32436 | 9039 ft | 307 kts | 71° |
| 2026-05-05 10:42 | 28.13495 | -16.30154 | 9826 ft | 311 kts | 71° |
| 2026-05-05 10:42 | 28.14248 | -16.27821 | 10371 ft | 322 kts | 71° |
| 2026-05-05 10:43 | 28.15043 | -16.25359 | 10681 ft | 342 kts | 71° |
| 2026-05-05 10:43 | 28.15884 | -16.22752 | 10931 ft | 363 kts | 71° |
| 2026-05-05 10:43 | 28.16774 | -16.19993 | 11208 ft | 380 kts | 71° |
| 2026-05-05 10:43 | 28.17694 | -16.17133 | 11615 ft | 392 kts | 71° |
| 2026-05-05 10:44 | 28.18630 | -16.14225 | 12301 ft | 395 kts | 71° |
| 2026-05-05 10:44 | 28.19580 | -16.11270 | 12822 ft | 403 kts | 71° |
| 2026-05-05 10:44 | 28.20715 | -16.08344 | 13434 ft | 408 kts | 58° |
| 2026-05-05 10:44 | 28.22537 | -16.05886 | 13991 ft | 410 kts | 37° |
| 2026-05-05 10:45 | 28.24952 | -16.04202 | 14517 ft | 407 kts | 17° |
| 2026-05-05 10:45 | 28.27675 | -16.03458 | 15065 ft | 401 kts | 358° |
| 2026-05-05 10:45 | 28.30431 | -16.03583 | 15611 ft | 397 kts | 348° |
| 2026-05-05 10:45 | 28.33197 | -16.03909 | 16170 ft | 401 kts | 347° |
| 2026-05-05 10:46 | 28.35977 | -16.04264 | 16772 ft | 404 kts | 347° |
| 2026-05-05 10:46 | 28.38779 | -16.04642 | 17332 ft | 407 kts | 346° |
| 2026-05-05 10:46 | 28.41603 | -16.05035 | 17898 ft | 410 kts | 346° |
| 2026-05-05 10:46 | 28.44448 | -16.05435 | 18446 ft | 414 kts | 346° |
| 2026-05-05 10:47 | 28.47317 | -16.05842 | 18928 ft | 417 kts | 346° |
| 2026-05-05 10:47 | 28.50207 | -16.06251 | 19407 ft | 420 kts | 345° |
| 2026-05-05 10:47 | 28.53122 | -16.06665 | 19891 ft | 424 kts | 345° |
| 2026-05-05 10:47 | 28.56056 | -16.07082 | 20358 ft | 427 kts | 345° |
| 2026-05-05 10:48 | 28.59019 | -16.07502 | 20846 ft | 430 kts | 345° |
| 2026-05-05 10:48 | 28.61999 | -16.07926 | 21302 ft | 433 kts | 345° |
| 2026-05-05 10:48 | 28.65000 | -16.08353 | 21755 ft | 436 kts | 345° |
| 2026-05-05 10:48 | 28.68023 | -16.08783 | 22204 ft | 439 kts | 345° |
| 2026-05-05 10:49 | 28.71071 | -16.09217 | 22649 ft | 442 kts | 344° |
| 2026-05-05 10:49 | 28.74138 | -16.09654 | 23079 ft | 446 kts | 344° |
| 2026-05-05 10:49 | 28.77185 | -16.10088 | 23500 ft | 449 kts | 344° |
| 2026-05-05 10:49 | 28.80289 | -16.10531 | 23881 ft | 452 kts | 344° |
| 2026-05-05 10:50 | 28.83419 | -16.10978 | 24244 ft | 454 kts | 344° |
| 2026-05-05 10:50 | 28.86567 | -16.11428 | 24613 ft | 457 kts | 343° |
| 2026-05-05 10:50 | 28.89742 | -16.11881 | 24917 ft | 461 kts | 343° |
| 2026-05-05 10:50 | 28.92934 | -16.12315 | 25274 ft | 467 kts | 347° |
| 2026-05-05 10:51 | 28.96242 | -16.12106 | 25663 ft | 486 kts | 3° |
| 2026-05-05 10:51 | 28.99549 | -16.11125 | 26019 ft | 494 kts | 8° |
| 2026-05-05 10:51 | 29.02873 | -16.10040 | 26301 ft | 498 kts | 9° |
| 2026-05-05 10:51 | 29.06203 | -16.08923 | 26660 ft | 500 kts | 9° |
| 2026-05-05 10:52 | 29.09550 | -16.07781 | 26964 ft | 504 kts | 9° |
| 2026-05-05 10:52 | 29.12919 | -16.06624 | 27280 ft | 507 kts | 9° |
| 2026-05-05 10:52 | 29.16301 | -16.05460 | 27623 ft | 509 kts | 9° |
| 2026-05-05 10:52 | 29.19701 | -16.04289 | 27930 ft | 512 kts | 9° |
| 2026-05-05 10:53 | 29.23119 | -16.03111 | 28228 ft | 514 kts | 9° |
| 2026-05-05 10:53 | 29.26551 | -16.01928 | 28528 ft | 517 kts | 9° |
| 2026-05-05 10:53 | 29.30004 | -16.00736 | 28821 ft | 519 kts | 9° |
| 2026-05-05 10:53 | 29.33470 | -15.99539 | 29094 ft | 522 kts | 9° |
| 2026-05-05 10:54 | 29.36960 | -15.98333 | 29374 ft | 525 kts | 9° |
| 2026-05-05 10:54 | 29.40465 | -15.97121 | 29651 ft | 527 kts | 9° |
| 2026-05-05 10:54 | 29.43990 | -15.95901 | 29987 ft | 529 kts | 9° |
| 2026-05-05 10:54 | 29.47513 | -15.94681 | 30297 ft | 530 kts | 9° |
| 2026-05-05 10:55 | 29.51050 | -15.93455 | 30609 ft | 530 kts | 9° |
| 2026-05-05 10:55 | 29.54579 | -15.92232 | 30946 ft | 530 kts | 9° |
| 2026-05-05 10:55 | 29.58107 | -15.91007 | 31271 ft | 529 kts | 9° |
| 2026-05-05 10:55 | 29.61635 | -15.89782 | 31595 ft | 529 kts | 9° |
| 2026-05-05 10:56 | 29.65152 | -15.88559 | 31919 ft | 529 kts | 8° |
| 2026-05-05 10:56 | 29.68677 | -15.87333 | 32237 ft | 528 kts | 8° |
| 2026-05-05 10:56 | 29.72188 | -15.86111 | 32549 ft | 528 kts | 8° |
| 2026-05-05 10:56 | 29.75705 | -15.84886 | 32867 ft | 528 kts | 8° |
| 2026-05-05 10:57 | 29.79167 | -15.83679 | 33173 ft | 527 kts | 8° |
| 2026-05-05 10:57 | 29.82680 | -15.82453 | 33475 ft | 527 kts | 7° |
| 2026-05-05 10:57 | 29.86187 | -15.81229 | 33776 ft | 527 kts | 7° |
| 2026-05-05 10:57 | 29.89695 | -15.80003 | 34073 ft | 526 kts | 7° |
| 2026-05-05 10:58 | 29.93198 | -15.78778 | 34334 ft | 526 kts | 7° |
| 2026-05-05 10:58 | 29.96700 | -15.77553 | 34584 ft | 525 kts | 7° |
| 2026-05-05 10:58 | 30.00197 | -15.76327 | 34882 ft | 525 kts | 8° |
| 2026-05-05 10:58 | 30.03679 | -15.75106 | 35223 ft | 521 kts | 8° |
| 2026-05-05 10:59 | 30.07145 | -15.73890 | 35518 ft | 519 kts | 8° |
| 2026-05-05 10:59 | 30.10603 | -15.72676 | 35742 ft | 519 kts | 8° |
| 2026-05-05 10:59 | 30.14053 | -15.71464 | 35969 ft | 518 kts | 8° |
| 2026-05-05 10:59 | 30.17497 | -15.70253 | 36112 ft | 519 kts | 8° |
| 2026-05-05 11:00 | 30.20957 | -15.69035 | 36110 ft | 518 kts | 8° |
| 2026-05-05 11:00 | 30.27839 | -15.66611 | 36107 ft | 517 kts | 8° |
| 2026-05-05 11:01 | 30.34708 | -15.64187 | 36098 ft | 513 kts | 8° |
| 2026-05-05 11:01 | 30.41533 | -15.61777 | 36107 ft | 514 kts | 8° |
| 2026-05-05 11:02 | 30.48379 | -15.59354 | 36100 ft | 514 kts | 8° |
| 2026-05-05 11:02 | 30.55220 | -15.56930 | 36103 ft | 514 kts | 8° |
| 2026-05-05 11:03 | 30.62045 | -15.54508 | 36122 ft | 509 kts | 9° |
| 2026-05-05 11:03 | 30.68789 | -15.52112 | 36105 ft | 506 kts | 9° |
| 2026-05-05 11:04 | 30.75484 | -15.49729 | 36106 ft | 506 kts | 9° |
| 2026-05-05 11:04 | 30.82224 | -15.47327 | 36104 ft | 507 kts | 9° |
| 2026-05-05 11:05 | 30.88957 | -15.44923 | 36142 ft | 503 kts | 11° |
| 2026-05-05 11:05 | 30.95601 | -15.42548 | 36116 ft | 498 kts | 11° |
| 2026-05-05 11:06 | 31.02237 | -15.40173 | 36110 ft | 499 kts | 11° |
| 2026-05-05 11:06 | 31.08864 | -15.37798 | 36110 ft | 498 kts | 11° |
| 2026-05-05 11:07 | 31.15499 | -15.35415 | 36132 ft | 498 kts | 11° |
| 2026-05-05 11:07 | 31.22091 | -15.33046 | 36110 ft | 494 kts | 11° |
| 2026-05-05 11:08 | 31.28660 | -15.30653 | 36108 ft | 497 kts | 15° |
| 2026-05-05 11:08 | 31.31755 | -15.28802 | 36089 ft | 503 kts | 30° |
| 2026-05-05 11:08 | 31.34675 | -15.26538 | 36118 ft | 505 kts | 28° |
| 2026-05-05 11:09 | 31.40573 | -15.22037 | 36114 ft | 506 kts | 29° |
| 2026-05-05 11:09 | 31.46394 | -15.17524 | 36129 ft | 500 kts | 30° |
| 2026-05-05 11:10 | 31.52158 | -15.13044 | 36118 ft | 496 kts | 30° |
| 2026-05-05 11:10 | 31.57911 | -15.08565 | 36117 ft | 496 kts | 30° |
| 2026-05-05 11:11 | 31.63668 | -15.04077 | 36112 ft | 496 kts | 30° |
| 2026-05-05 11:11 | 31.69415 | -14.99589 | 36113 ft | 496 kts | 30° |
| 2026-05-05 11:12 | 31.75157 | -14.95098 | 36147 ft | 493 kts | 31° |
| 2026-05-05 11:12 | 31.80812 | -14.90670 | 36116 ft | 485 kts | 30° |
| 2026-05-05 11:13 | 31.86437 | -14.86258 | 36116 ft | 486 kts | 30° |
| 2026-05-05 11:13 | 31.92056 | -14.81843 | 36119 ft | 486 kts | 30° |
| 2026-05-05 11:14 | 31.97674 | -14.77424 | 36128 ft | 486 kts | 31° |
| 2026-05-05 11:14 | 32.03257 | -14.73025 | 36155 ft | 485 kts | 31° |
| 2026-05-05 11:15 | 32.08827 | -14.68629 | 36116 ft | 479 kts | 31° |
| 2026-05-05 11:15 | 32.14364 | -14.64254 | 36131 ft | 480 kts | 31° |
| 2026-05-05 11:16 | 32.19908 | -14.59867 | 36126 ft | 480 kts | 31° |
| 2026-05-05 11:16 | 32.25453 | -14.55472 | 36133 ft | 481 kts | 31° |
| 2026-05-05 11:17 | 32.31018 | -14.51054 | 36136 ft | 483 kts | 31° |
| 2026-05-05 11:17 | 32.36555 | -14.46652 | 36138 ft | 475 kts | 32° |
| 2026-05-05 11:18 | 32.42038 | -14.42286 | 36162 ft | 476 kts | 31° |
| 2026-05-05 11:18 | 32.47540 | -14.37899 | 36077 ft | 475 kts | 32° |
| 2026-05-05 11:19 | 32.53019 | -14.33524 | 36151 ft | 476 kts | 32° |
| 2026-05-05 11:19 | 32.58506 | -14.29136 | 36147 ft | 476 kts | 32° |
| 2026-05-05 11:20 | 32.63991 | -14.24743 | 36139 ft | 476 kts | 32° |
| 2026-05-05 11:20 | 32.69476 | -14.20343 | 36137 ft | 476 kts | 32° |
| 2026-05-05 11:21 | 32.74034 | -14.16681 | 36146 ft | 476 kts | 32° |
| 2026-05-05 11:21 | 32.79516 | -14.12272 | 36147 ft | 476 kts | 32° |
| 2026-05-05 11:22 | 32.85002 | -14.07853 | 36151 ft | 476 kts | 32° |
| 2026-05-05 11:22 | 32.90477 | -14.03435 | 36162 ft | 475 kts | 32° |
| 2026-05-05 11:23 | 32.95929 | -13.99030 | 36149 ft | 473 kts | 32° |
| 2026-05-05 11:23 | 33.01377 | -13.94621 | 36148 ft | 473 kts | 32° |
| 2026-05-05 11:24 | 33.06825 | -13.90207 | 36148 ft | 473 kts | 32° |
| 2026-05-05 11:24 | 33.12271 | -13.85788 | 36152 ft | 473 kts | 32° |
| 2026-05-05 11:25 | 33.17677 | -13.81368 | 36155 ft | 475 kts | 32° |
| 2026-05-05 11:25 | 33.23137 | -13.76891 | 36149 ft | 476 kts | 32° |
| 2026-05-05 11:26 | 33.28598 | -13.72408 | 36154 ft | 476 kts | 32° |
| 2026-05-05 11:26 | 33.34055 | -13.67922 | 36159 ft | 476 kts | 32° |
| 2026-05-05 11:27 | 33.39523 | -13.63419 | 36140 ft | 477 kts | 32° |
| 2026-05-05 11:27 | 33.44975 | -13.58923 | 36141 ft | 476 kts | 32° |
| 2026-05-05 11:28 | 33.50422 | -13.54424 | 36151 ft | 475 kts | 32° |
| 2026-05-05 11:28 | 33.55860 | -13.49925 | 36153 ft | 475 kts | 32° |
| 2026-05-05 11:29 | 33.61311 | -13.45408 | 36150 ft | 477 kts | 32° |
| 2026-05-05 11:29 | 33.66776 | -13.40874 | 36152 ft | 477 kts | 32° |
| 2026-05-05 11:30 | 33.72240 | -13.36332 | 36153 ft | 478 kts | 32° |
| 2026-05-05 11:30 | 33.77694 | -13.31791 | 36166 ft | 475 kts | 32° |
| 2026-05-05 11:31 | 33.83108 | -13.27277 | 36155 ft | 473 kts | 32° |
| 2026-05-05 11:31 | 33.88525 | -13.22754 | 36151 ft | 474 kts | 32° |
| 2026-05-05 11:32 | 33.93902 | -13.18256 | 36158 ft | 474 kts | 32° |
| 2026-05-05 11:32 | 33.99348 | -13.13693 | 36151 ft | 474 kts | 32° |
| 2026-05-05 11:33 | 34.04732 | -13.09176 | 36175 ft | 475 kts | 32° |
| 2026-05-05 11:33 | 34.10143 | -13.04629 | 36153 ft | 473 kts | 32° |
| 2026-05-05 11:34 | 34.15549 | -13.00078 | 36155 ft | 473 kts | 32° |
| 2026-05-05 11:34 | 34.20949 | -12.95528 | 36161 ft | 473 kts | 32° |
| 2026-05-05 11:35 | 34.26349 | -12.90978 | 36163 ft | 473 kts | 32° |
| 2026-05-05 11:35 | 34.31767 | -12.86447 | 36179 ft | 473 kts | 32° |
| 2026-05-05 11:36 | 34.37176 | -12.81913 | 36162 ft | 472 kts | 32° |
| 2026-05-05 11:36 | 34.42580 | -12.77376 | 36162 ft | 473 kts | 32° |
| 2026-05-05 11:37 | 34.47990 | -12.72827 | 36165 ft | 474 kts | 32° |
| 2026-05-05 11:37 | 34.53406 | -12.68265 | 36162 ft | 474 kts | 32° |
| 2026-05-05 11:38 | 34.58822 | -12.63696 | 36168 ft | 474 kts | 32° |
| 2026-05-05 11:38 | 34.64236 | -12.59122 | 36165 ft | 474 kts | 32° |
| 2026-05-05 11:39 | 34.69643 | -12.54545 | 36167 ft | 474 kts | 32° |
| 2026-05-05 11:39 | 34.75055 | -12.49958 | 36168 ft | 474 kts | 32° |
| 2026-05-05 11:40 | 34.80427 | -12.45396 | 36165 ft | 474 kts | 32° |
| 2026-05-05 11:40 | 34.85832 | -12.40800 | 36167 ft | 474 kts | 32° |
| 2026-05-05 11:41 | 34.91244 | -12.36189 | 36170 ft | 475 kts | 32° |
| 2026-05-05 11:41 | 34.96658 | -12.31569 | 36171 ft | 475 kts | 32° |
| 2026-05-05 11:42 | 35.02075 | -12.26939 | 36172 ft | 475 kts | 32° |
| 2026-05-05 11:42 | 35.07485 | -12.22308 | 36170 ft | 475 kts | 32° |
| 2026-05-05 11:43 | 35.12901 | -12.17664 | 36166 ft | 475 kts | 32° |
| 2026-05-05 11:43 | 35.18310 | -12.13018 | 36170 ft | 476 kts | 32° |
| 2026-05-05 11:44 | 35.23729 | -12.08356 | 36178 ft | 477 kts | 32° |
| 2026-05-05 11:44 | 35.26446 | -12.06015 | 36401 ft | 476 kts | 32° |
| 2026-05-05 11:44 | 35.29156 | -12.03679 | 36608 ft | 476 kts | 32° |
| 2026-05-05 11:44 | 35.31867 | -12.01339 | 36776 ft | 477 kts | 32° |
| 2026-05-05 11:45 | 35.34580 | -11.98996 | 36969 ft | 477 kts | 32° |
| 2026-05-05 11:45 | 35.37292 | -11.96653 | 37173 ft | 476 kts | 32° |
| 2026-05-05 11:45 | 35.39994 | -11.94314 | 37368 ft | 476 kts | 32° |
| 2026-05-05 11:45 | 35.42699 | -11.91973 | 37579 ft | 475 kts | 32° |
| 2026-05-05 11:46 | 35.45393 | -11.89639 | 37782 ft | 474 kts | 32° |
| 2026-05-05 11:46 | 35.48084 | -11.87305 | 37980 ft | 473 kts | 32° |
| 2026-05-05 11:46 | 35.50731 | -11.85008 | 38155 ft | 472 kts | 32° |
| 2026-05-05 11:47 | 35.56088 | -11.80352 | 38158 ft | 471 kts | 32° |
| 2026-05-05 11:47 | 35.61431 | -11.75701 | 38176 ft | 471 kts | 32° |
| 2026-05-05 11:48 | 35.69443 | -11.68714 | 38178 ft | 471 kts | 32° |
| 2026-05-05 11:48 | 35.74788 | -11.64041 | 38170 ft | 472 kts | 32° |
| 2026-05-05 11:49 | 35.80138 | -11.59356 | 38164 ft | 472 kts | 32° |
| 2026-05-05 11:49 | 35.85487 | -11.54666 | 38165 ft | 472 kts | 32° |
| 2026-05-05 11:50 | 35.90833 | -11.49972 | 38165 ft | 472 kts | 32° |
| 2026-05-05 11:50 | 35.96178 | -11.45278 | 38182 ft | 472 kts | 32° |
| 2026-05-05 11:51 | 36.01576 | -11.40659 | 38174 ft | 472 kts | 32° |
| 2026-05-05 11:51 | 36.06942 | -11.36052 | 38171 ft | 473 kts | 32° |
| 2026-05-05 11:52 | 36.12336 | -11.31411 | 38173 ft | 473 kts | 32° |
| 2026-05-05 11:52 | 36.17739 | -11.26755 | 38173 ft | 474 kts | 32° |
| 2026-05-05 11:53 | 36.23151 | -11.22084 | 38188 ft | 474 kts | 32° |
| 2026-05-05 11:53 | 36.28563 | -11.17403 | 38179 ft | 474 kts | 32° |
| 2026-05-05 11:54 | 36.33972 | -11.12717 | 38169 ft | 474 kts | 32° |
| 2026-05-05 11:54 | 36.39386 | -11.08019 | 38167 ft | 475 kts | 32° |
| 2026-05-05 11:55 | 36.44795 | -11.03317 | 38169 ft | 475 kts | 32° |
| 2026-05-05 11:55 | 36.50206 | -10.98606 | 38176 ft | 475 kts | 32° |
| 2026-05-05 11:56 | 36.55616 | -10.93887 | 38174 ft | 475 kts | 32° |
| 2026-05-05 11:56 | 36.60999 | -10.89183 | 38169 ft | 476 kts | 32° |
| 2026-05-05 11:57 | 36.66420 | -10.84438 | 38168 ft | 476 kts | 32° |
| 2026-05-05 11:57 | 36.71839 | -10.79686 | 38169 ft | 476 kts | 32° |
| 2026-05-05 11:58 | 36.77255 | -10.74929 | 38165 ft | 476 kts | 32° |
| 2026-05-05 11:58 | 36.82671 | -10.70163 | 38162 ft | 476 kts | 32° |
| 2026-05-05 11:59 | 36.88084 | -10.65391 | 38165 ft | 476 kts | 32° |
| 2026-05-05 11:59 | 36.93494 | -10.60614 | 38166 ft | 476 kts | 32° |
| 2026-05-05 12:00 | 36.98900 | -10.55832 | 38167 ft | 477 kts | 32° |
| 2026-05-05 12:00 | 37.04321 | -10.51027 | 38170 ft | 478 kts | 31° |
| 2026-05-05 12:01 | 37.09745 | -10.46212 | 38164 ft | 478 kts | 32° |
| 2026-05-05 12:01 | 37.15175 | -10.41382 | 38157 ft | 478 kts | 32° |
| 2026-05-05 12:02 | 37.20592 | -10.36556 | 38157 ft | 478 kts | 32° |
| 2026-05-05 12:02 | 37.26009 | -10.31720 | 38157 ft | 478 kts | 32° |
| 2026-05-05 12:03 | 37.31431 | -10.26873 | 38156 ft | 479 kts | 31° |
| 2026-05-05 12:03 | 37.36821 | -10.22044 | 38157 ft | 479 kts | 31° |
| 2026-05-05 12:04 | 37.42246 | -10.17176 | 38158 ft | 480 kts | 31° |
| 2026-05-05 12:04 | 37.47677 | -10.12293 | 38154 ft | 480 kts | 31° |
| 2026-05-05 12:05 | 37.53101 | -10.07410 | 38175 ft | 480 kts | 31° |
| 2026-05-05 12:05 | 37.58540 | -10.02503 | 38151 ft | 480 kts | 31° |
| 2026-05-05 12:06 | 37.63893 | -9.97450 | 38156 ft | 482 kts | 34° |
| 2026-05-05 12:06 | 37.69154 | -9.92193 | 38145 ft | 482 kts | 34° |
| 2026-05-05 12:07 | 37.74433 | -9.86949 | 38150 ft | 482 kts | 34° |
| 2026-05-05 12:07 | 37.79699 | -9.81710 | 38164 ft | 482 kts | 33° |
| 2026-05-05 12:08 | 37.84980 | -9.76448 | 38149 ft | 483 kts | 33° |
| 2026-05-05 12:08 | 37.90263 | -9.71172 | 38131 ft | 483 kts | 33° |
| 2026-05-05 12:09 | 37.95509 | -9.65924 | 38141 ft | 483 kts | 33° |
| 2026-05-05 12:09 | 38.00780 | -9.60642 | 38147 ft | 483 kts | 33° |
| 2026-05-05 12:10 | 38.05162 | -9.56242 | 38138 ft | 483 kts | 33° |
| 2026-05-05 12:10 | 38.10434 | -9.50941 | 38128 ft | 483 kts | 34° |
| 2026-05-05 12:11 | 38.15701 | -9.45634 | 38135 ft | 483 kts | 33° |
| 2026-05-05 12:11 | 38.20972 | -9.40313 | 38143 ft | 485 kts | 33° |
| 2026-05-05 12:12 | 38.26254 | -9.34970 | 38122 ft | 485 kts | 33° |
| 2026-05-05 12:12 | 38.31535 | -9.29619 | 38143 ft | 484 kts | 33° |
| 2026-05-05 12:13 | 38.36795 | -9.24279 | 38129 ft | 484 kts | 33° |
| 2026-05-05 12:13 | 38.42055 | -9.18914 | 38122 ft | 485 kts | 34° |
| 2026-05-05 12:14 | 38.47257 | -9.13431 | 38120 ft | 485 kts | 34° |
| 2026-05-05 12:14 | 38.52454 | -9.07962 | 38108 ft | 485 kts | 34° |
| 2026-05-05 12:15 | 38.57663 | -9.02471 | 38112 ft | 484 kts | 34° |
| 2026-05-05 12:15 | 38.62848 | -8.96996 | 38115 ft | 483 kts | 34° |
| 2026-05-05 12:16 | 38.68020 | -8.91508 | 38103 ft | 483 kts | 34° |
| 2026-05-05 12:16 | 38.73190 | -8.86008 | 38104 ft | 483 kts | 34° |
| 2026-05-05 12:17 | 38.78360 | -8.80499 | 38099 ft | 483 kts | 34° |
| 2026-05-05 12:17 | 38.83481 | -8.75032 | 38093 ft | 480 kts | 34° |
| 2026-05-05 12:18 | 38.88616 | -8.69539 | 38105 ft | 481 kts | 34° |
| 2026-05-05 12:18 | 38.93755 | -8.64030 | 38100 ft | 481 kts | 34° |
| 2026-05-05 12:19 | 38.98898 | -8.58507 | 38089 ft | 481 kts | 34° |
| 2026-05-05 12:19 | 39.04032 | -8.52983 | 38125 ft | 481 kts | 34° |
| 2026-05-05 12:20 | 39.09160 | -8.47454 | 38078 ft | 479 kts | 35° |
| 2026-05-05 12:20 | 39.14281 | -8.41923 | 38094 ft | 480 kts | 35° |
| 2026-05-05 12:21 | 39.19252 | -8.36148 | 38094 ft | 482 kts | 38° |
| 2026-05-05 12:21 | 39.24169 | -8.30259 | 38086 ft | 483 kts | 38° |
| 2026-05-05 12:22 | 39.29095 | -8.24374 | 38105 ft | 483 kts | 38° |
| 2026-05-05 12:22 | 39.34010 | -8.18492 | 38065 ft | 481 kts | 38° |
| 2026-05-05 12:23 | 39.38919 | -8.12606 | 38085 ft | 482 kts | 38° |
| 2026-05-05 12:23 | 39.43825 | -8.06711 | 38081 ft | 481 kts | 38° |
| 2026-05-05 12:24 | 39.48698 | -8.00844 | 38064 ft | 482 kts | 38° |
| 2026-05-05 12:24 | 39.53598 | -7.94934 | 38119 ft | 482 kts | 38° |
| 2026-05-05 12:25 | 39.58635 | -7.89307 | 38083 ft | 474 kts | 33° |
| 2026-05-05 12:25 | 39.63836 | -7.84022 | 38049 ft | 475 kts | 32° |
| 2026-05-05 12:26 | 39.69051 | -7.78740 | 38056 ft | 475 kts | 32° |
| 2026-05-05 12:26 | 39.74260 | -7.73457 | 38068 ft | 475 kts | 32° |
| 2026-05-05 12:27 | 39.79466 | -7.68166 | 38079 ft | 474 kts | 32° |
| 2026-05-05 12:27 | 39.84498 | -7.62605 | 38080 ft | 475 kts | 36° |
| 2026-05-05 12:28 | 39.89448 | -7.56868 | 38054 ft | 476 kts | 36° |
| 2026-05-05 12:28 | 39.94416 | -7.51143 | 38050 ft | 476 kts | 36° |
| 2026-05-05 12:29 | 39.99381 | -7.45413 | 38053 ft | 476 kts | 36° |
| 2026-05-05 12:29 | 40.04338 | -7.39681 | 38059 ft | 476 kts | 36° |
| 2026-05-05 12:30 | 40.09248 | -7.33991 | 38055 ft | 475 kts | 36° |
| 2026-05-05 12:30 | 40.14191 | -7.28251 | 38037 ft | 475 kts | 36° |
| 2026-05-05 12:31 | 40.19129 | -7.22507 | 38035 ft | 475 kts | 36° |
| 2026-05-05 12:31 | 40.24076 | -7.16740 | 38046 ft | 478 kts | 36° |
| 2026-05-05 12:32 | 40.29038 | -7.10956 | 38046 ft | 475 kts | 36° |
| 2026-05-05 12:32 | 40.33985 | -7.05238 | 38046 ft | 474 kts | 36° |
| 2026-05-05 12:33 | 40.38931 | -6.99504 | 38042 ft | 475 kts | 36° |
| 2026-05-05 12:33 | 40.43874 | -6.93761 | 38042 ft | 475 kts | 36° |
| 2026-05-05 12:34 | 40.48815 | -6.88009 | 38042 ft | 475 kts | 36° |
| 2026-05-05 12:34 | 40.53756 | -6.82245 | 38047 ft | 475 kts | 36° |
| 2026-05-05 12:35 | 40.58705 | -6.76461 | 38037 ft | 476 kts | 36° |
| 2026-05-05 12:35 | 40.63614 | -6.70714 | 38040 ft | 476 kts | 36° |
| 2026-05-05 12:36 | 40.68558 | -6.64918 | 38043 ft | 476 kts | 36° |
| 2026-05-05 12:36 | 40.73498 | -6.59114 | 38057 ft | 475 kts | 37° |
| 2026-05-05 12:37 | 40.78422 | -6.53317 | 38030 ft | 474 kts | 37° |
| 2026-05-05 12:37 | 40.83341 | -6.47514 | 38035 ft | 474 kts | 37° |
| 2026-05-05 12:38 | 40.88262 | -6.41697 | 38031 ft | 475 kts | 37° |
| 2026-05-05 12:38 | 40.93185 | -6.35865 | 38028 ft | 476 kts | 37° |
| 2026-05-05 12:39 | 40.98113 | -6.30016 | 38040 ft | 475 kts | 37° |
| 2026-05-05 12:39 | 41.03025 | -6.24169 | 38028 ft | 474 kts | 37° |
| 2026-05-05 12:40 | 41.07931 | -6.18319 | 38017 ft | 474 kts | 37° |
| 2026-05-05 12:40 | 41.12832 | -6.12463 | 38023 ft | 474 kts | 37° |
| 2026-05-05 12:41 | 41.17736 | -6.06590 | 38017 ft | 475 kts | 38° |
| 2026-05-05 12:41 | 41.22620 | -6.00729 | 38018 ft | 476 kts | 38° |
| 2026-05-05 12:42 | 41.27522 | -5.94834 | 38008 ft | 475 kts | 38° |
| 2026-05-05 12:42 | 41.32427 | -5.88923 | 38003 ft | 476 kts | 38° |
| 2026-05-05 12:43 | 41.37331 | -5.83001 | 38003 ft | 475 kts | 38° |
| 2026-05-05 12:43 | 41.42226 | -5.77077 | 38018 ft | 476 kts | 38° |
| 2026-05-05 12:44 | 41.47116 | -5.71147 | 37996 ft | 474 kts | 38° |
| 2026-05-05 12:44 | 41.52035 | -5.65264 | 37994 ft | 474 kts | 32° |
| 2026-05-05 12:45 | 41.54850 | -5.63107 | 37998 ft | 463 kts | 19° |
| 2026-05-05 12:45 | 41.57807 | -5.61391 | 37979 ft | 465 kts | 20° |
| 2026-05-05 12:45 | 41.63748 | -5.57946 | 38016 ft | 466 kts | 19° |
| 2026-05-05 12:46 | 41.69714 | -5.54564 | 37995 ft | 464 kts | 19° |
| 2026-05-05 12:46 | 41.75626 | -5.51218 | 37998 ft | 464 kts | 19° |
| 2026-05-05 12:47 | 41.81579 | -5.47844 | 38000 ft | 465 kts | 19° |
| 2026-05-05 12:47 | 41.87532 | -5.44463 | 38014 ft | 465 kts | 19° |
| 2026-05-05 12:48 | 41.93482 | -5.41078 | 38001 ft | 464 kts | 19° |
| 2026-05-05 12:48 | 41.99431 | -5.37685 | 37996 ft | 465 kts | 19° |
| 2026-05-05 12:49 | 42.05376 | -5.34288 | 37999 ft | 464 kts | 19° |
| 2026-05-05 12:49 | 42.11331 | -5.30879 | 38005 ft | 466 kts | 20° |
| 2026-05-05 12:50 | 42.17306 | -5.27450 | 37997 ft | 467 kts | 20° |
| 2026-05-05 12:50 | 42.23282 | -5.24014 | 37994 ft | 466 kts | 20° |
| 2026-05-05 12:51 | 42.29220 | -5.20594 | 38006 ft | 466 kts | 20° |
| 2026-05-05 12:51 | 42.35186 | -5.17149 | 37996 ft | 465 kts | 20° |
| 2026-05-05 12:52 | 42.41136 | -5.13707 | 37991 ft | 465 kts | 20° |
| 2026-05-05 12:52 | 42.47087 | -5.10258 | 37998 ft | 465 kts | 20° |
| 2026-05-05 12:53 | 42.53041 | -5.06799 | 38008 ft | 465 kts | 20° |
| 2026-05-05 12:53 | 42.58978 | -5.03344 | 38000 ft | 464 kts | 20° |
| 2026-05-05 12:54 | 42.67890 | -4.98142 | 38007 ft | 464 kts | 20° |
| 2026-05-05 12:55 | 42.73795 | -4.94685 | 37983 ft | 465 kts | 20° |
| 2026-05-05 12:55 | 42.79750 | -4.91192 | 38013 ft | 468 kts | 20° |
| 2026-05-05 12:56 | 42.85724 | -4.87681 | 38009 ft | 467 kts | 20° |
| 2026-05-05 12:56 | 42.91696 | -4.84163 | 38001 ft | 467 kts | 20° |
| 2026-05-05 12:57 | 42.97657 | -4.80645 | 38000 ft | 467 kts | 20° |
| 2026-05-05 12:57 | 43.03621 | -4.77117 | 38008 ft | 467 kts | 20° |
| 2026-05-05 12:58 | 43.09580 | -4.73585 | 38013 ft | 467 kts | 20° |
| 2026-05-05 12:58 | 43.14535 | -4.70642 | 38019 ft | 467 kts | 21° |
| 2026-05-05 12:59 | 43.20493 | -4.67096 | 38018 ft | 466 kts | 21° |
| 2026-05-05 12:59 | 43.26444 | -4.63548 | 38014 ft | 466 kts | 21° |
| 2026-05-05 13:00 | 43.35368 | -4.58211 | 38037 ft | 466 kts | 21° |
| 2026-05-05 13:01 | 43.47296 | -4.51054 | 38024 ft | 468 kts | 21° |
| 2026-05-05 13:01 | 43.53268 | -4.47456 | 38020 ft | 468 kts | 21° |
| 2026-05-05 13:02 | 43.59203 | -4.43876 | 38014 ft | 469 kts | 21° |
| 2026-05-05 13:02 | 43.65182 | -4.40259 | 38027 ft | 469 kts | 21° |
| 2026-05-05 13:03 | 43.71157 | -4.36638 | 38016 ft | 469 kts | 21° |
| 2026-05-05 13:03 | 43.77135 | -4.33006 | 38022 ft | 469 kts | 21° |
| 2026-05-05 13:04 | 43.83096 | -4.29377 | 38004 ft | 467 kts | 21° |
| 2026-05-05 13:04 | 43.89054 | -4.25742 | 38002 ft | 468 kts | 22° |
| 2026-05-05 13:05 | 43.95013 | -4.22098 | 37997 ft | 468 kts | 21° |
| 2026-05-05 13:05 | 44.00922 | -4.18477 | 37991 ft | 466 kts | 22° |
| 2026-05-05 13:06 | 44.06861 | -4.14830 | 37991 ft | 466 kts | 22° |
| 2026-05-05 13:06 | 44.12797 | -4.11177 | 37987 ft | 466 kts | 22° |
| 2026-05-05 13:07 | 44.18732 | -4.07515 | 37991 ft | 466 kts | 22° |
| 2026-05-05 13:07 | 44.24650 | -4.03857 | 37986 ft | 465 kts | 22° |
| 2026-05-05 13:08 | 44.30568 | -4.00192 | 37985 ft | 465 kts | 22° |
| 2026-05-05 13:08 | 44.36111 | -3.95573 | 38002 ft | 466 kts | 33° |
| 2026-05-05 13:09 | 44.41454 | -3.90413 | 37982 ft | 466 kts | 33° |
| 2026-05-05 13:09 | 44.46785 | -3.85215 | 37980 ft | 467 kts | 34° |
| 2026-05-05 13:10 | 44.52111 | -3.80007 | 37979 ft | 467 kts | 34° |
| 2026-05-05 13:10 | 44.57445 | -3.74778 | 37985 ft | 467 kts | 34° |
| 2026-05-05 13:11 | 44.62768 | -3.69550 | 37977 ft | 466 kts | 34° |
| 2026-05-05 13:11 | 44.68047 | -3.64351 | 37974 ft | 467 kts | 34° |
| 2026-05-05 13:12 | 44.73361 | -3.59107 | 37973 ft | 467 kts | 34° |
| 2026-05-05 13:12 | 44.78674 | -3.53851 | 37974 ft | 467 kts | 34° |
| 2026-05-05 13:13 | 44.83986 | -3.48585 | 37971 ft | 467 kts | 34° |
| 2026-05-05 13:13 | 44.89294 | -3.43310 | 37971 ft | 467 kts | 34° |
| 2026-05-05 13:14 | 44.94607 | -3.38018 | 37979 ft | 468 kts | 34° |
| 2026-05-05 13:14 | 44.99920 | -3.32714 | 37967 ft | 468 kts | 34° |
| 2026-05-05 13:15 | 45.05241 | -3.27390 | 37969 ft | 468 kts | 34° |
| 2026-05-05 13:15 | 45.10549 | -3.22065 | 37963 ft | 468 kts | 34° |
| 2026-05-05 13:16 | 45.15859 | -3.16727 | 37969 ft | 468 kts | 34° |
| 2026-05-05 13:16 | 45.21174 | -3.11372 | 37960 ft | 469 kts | 35° |
| 2026-05-05 13:17 | 45.26489 | -3.06004 | 37951 ft | 469 kts | 35° |
| 2026-05-05 13:17 | 45.31811 | -3.00616 | 37956 ft | 470 kts | 35° |
| 2026-05-05 13:18 | 45.37099 | -2.95249 | 37959 ft | 470 kts | 35° |
| 2026-05-05 13:18 | 45.42425 | -2.89832 | 37957 ft | 470 kts | 35° |
| 2026-05-05 13:19 | 45.47747 | -2.84406 | 37956 ft | 470 kts | 35° |
| 2026-05-05 13:19 | 45.53072 | -2.78964 | 37949 ft | 470 kts | 35° |
| 2026-05-05 13:20 | 45.58384 | -2.73522 | 37948 ft | 469 kts | 35° |
| 2026-05-05 13:20 | 45.63693 | -2.68070 | 37952 ft | 472 kts | 35° |
| 2026-05-05 13:21 | 45.69020 | -2.62587 | 37937 ft | 472 kts | 35° |
| 2026-05-05 13:21 | 45.74344 | -2.57094 | 37937 ft | 472 kts | 36° |
| 2026-05-05 13:22 | 45.79654 | -2.51601 | 37929 ft | 470 kts | 36° |
| 2026-05-05 13:22 | 45.84940 | -2.46121 | 37936 ft | 469 kts | 36° |
| 2026-05-05 13:23 | 45.90228 | -2.40627 | 37935 ft | 470 kts | 36° |
| 2026-05-05 13:23 | 45.95483 | -2.35155 | 37934 ft | 470 kts | 36° |
| 2026-05-05 13:24 | 46.00786 | -2.29621 | 37933 ft | 471 kts | 36° |
| 2026-05-05 13:24 | 46.06146 | -2.24195 | 37928 ft | 471 kts | 33° |
| 2026-05-05 13:25 | 46.11640 | -2.19052 | 37921 ft | 471 kts | 33° |
| 2026-05-05 13:25 | 46.17127 | -2.13855 | 37923 ft | 471 kts | 33° |
| 2026-05-05 13:26 | 46.22599 | -2.08655 | 37916 ft | 471 kts | 33° |
| 2026-05-05 13:26 | 46.28071 | -2.03445 | 37914 ft | 471 kts | 33° |
| 2026-05-05 13:27 | 46.33535 | -1.98228 | 37913 ft | 471 kts | 33° |
| 2026-05-05 13:27 | 46.39016 | -1.92982 | 37919 ft | 473 kts | 33° |
| 2026-05-05 13:28 | 46.44488 | -1.87733 | 37916 ft | 471 kts | 34° |
| 2026-05-05 13:28 | 46.49959 | -1.82471 | 37914 ft | 471 kts | 34° |
| 2026-05-05 13:29 | 46.55397 | -1.77228 | 37906 ft | 472 kts | 34° |
| 2026-05-05 13:29 | 46.60849 | -1.71959 | 37895 ft | 468 kts | 34° |
| 2026-05-05 13:30 | 46.66279 | -1.66698 | 37891 ft | 469 kts | 34° |
| 2026-05-05 13:30 | 46.71708 | -1.61425 | 37877 ft | 469 kts | 34° |
| 2026-05-05 13:31 | 46.77143 | -1.56133 | 37881 ft | 470 kts | 34° |
| 2026-05-05 13:31 | 46.82581 | -1.50825 | 37880 ft | 470 kts | 34° |
| 2026-05-05 13:32 | 46.88013 | -1.45511 | 37880 ft | 471 kts | 34° |
| 2026-05-05 13:32 | 46.93447 | -1.40183 | 37884 ft | 470 kts | 34° |
| 2026-05-05 13:33 | 46.98521 | -1.34247 | 37889 ft | 465 kts | 51° |
| 2026-05-05 13:33 | 47.02871 | -1.27206 | 37873 ft | 466 kts | 49° |
| 2026-05-05 13:34 | 47.07195 | -1.20184 | 37872 ft | 468 kts | 49° |
| 2026-05-05 13:34 | 47.11549 | -1.13049 | 37879 ft | 470 kts | 49° |
| 2026-05-05 13:35 | 47.15908 | -1.05889 | 37873 ft | 469 kts | 49° |
| 2026-05-05 13:35 | 47.20255 | -0.98728 | 37861 ft | 468 kts | 49° |
| 2026-05-05 13:36 | 47.24573 | -0.91595 | 37868 ft | 467 kts | 49° |
| 2026-05-05 13:36 | 47.28888 | -0.84449 | 37867 ft | 466 kts | 50° |
| 2026-05-05 13:37 | 47.33197 | -0.77292 | 37862 ft | 468 kts | 49° |
| 2026-05-05 13:37 | 47.37525 | -0.70087 | 37861 ft | 469 kts | 49° |
| 2026-05-05 13:38 | 47.41837 | -0.62890 | 37861 ft | 466 kts | 49° |
| 2026-05-05 13:38 | 47.46599 | -0.56455 | 37894 ft | 466 kts | 37° |
| 2026-05-05 13:39 | 47.51793 | -0.50677 | 37890 ft | 467 kts | 37° |
| 2026-05-05 13:39 | 47.57012 | -0.44904 | 37874 ft | 467 kts | 38° |
| 2026-05-05 13:40 | 47.62217 | -0.39138 | 37887 ft | 466 kts | 38° |
| 2026-05-05 13:40 | 47.67352 | -0.33435 | 37884 ft | 464 kts | 38° |
| 2026-05-05 13:41 | 47.72522 | -0.27680 | 37871 ft | 464 kts | 38° |
| 2026-05-05 13:41 | 47.77684 | -0.21917 | 37863 ft | 464 kts | 38° |
| 2026-05-05 13:42 | 47.82844 | -0.16143 | 37844 ft | 464 kts | 38° |
| 2026-05-05 13:42 | 47.88004 | -0.10355 | 37843 ft | 465 kts | 38° |
| 2026-05-05 13:43 | 47.93165 | -0.04550 | 37846 ft | 465 kts | 38° |
| 2026-05-05 13:43 | 47.98317 | 0.01259 | 37868 ft | 465 kts | 38° |
| 2026-05-05 13:44 | 48.03474 | 0.07089 | 37854 ft | 464 kts | 39° |
| 2026-05-05 13:44 | 48.08591 | 0.12890 | 37871 ft | 465 kts | 38° |
| 2026-05-05 13:45 | 48.13745 | 0.18745 | 37850 ft | 464 kts | 38° |
| 2026-05-05 13:45 | 48.18890 | 0.24608 | 37862 ft | 465 kts | 38° |
| 2026-05-05 13:46 | 48.24038 | 0.30488 | 37843 ft | 464 kts | 39° |
| 2026-05-05 13:46 | 48.29198 | 0.36396 | 37849 ft | 464 kts | 38° |
| 2026-05-05 13:47 | 48.33462 | 0.41291 | 37847 ft | 463 kts | 39° |
| 2026-05-05 13:47 | 48.39424 | 0.48154 | 37867 ft | 466 kts | 38° |
| 2026-05-05 13:48 | 48.44551 | 0.54070 | 37840 ft | 464 kts | 39° |
| 2026-05-05 13:48 | 48.49671 | 0.59996 | 37863 ft | 465 kts | 38° |
| 2026-05-05 13:49 | 48.53965 | 0.64977 | 37853 ft | 465 kts | 39° |
| 2026-05-05 13:49 | 48.59050 | 0.70889 | 37857 ft | 465 kts | 38° |
| 2026-05-05 13:50 | 48.64175 | 0.76863 | 37852 ft | 465 kts | 39° |
| 2026-05-05 13:50 | 48.69288 | 0.82835 | 37861 ft | 464 kts | 39° |
| 2026-05-05 13:51 | 48.74404 | 0.88811 | 37854 ft | 464 kts | 38° |
| 2026-05-05 13:51 | 48.79549 | 0.94719 | 37858 ft | 464 kts | 39° |
| 2026-05-05 13:52 | 48.84697 | 1.00656 | 37858 ft | 464 kts | 38° |
| 2026-05-05 13:52 | 48.89839 | 1.06601 | 37854 ft | 464 kts | 39° |
| 2026-05-05 13:53 | 48.94975 | 1.12555 | 37857 ft | 464 kts | 39° |
| 2026-05-05 13:53 | 49.00110 | 1.18523 | 37857 ft | 464 kts | 38° |
| 2026-05-05 13:54 | 49.05046 | 1.24824 | 37867 ft | 462 kts | 44° |
| 2026-05-05 13:54 | 49.09748 | 1.31556 | 37820 ft | 463 kts | 45° |
| 2026-05-05 13:55 | 49.14440 | 1.38331 | 37839 ft | 466 kts | 45° |
| 2026-05-05 13:55 | 49.19136 | 1.45129 | 37852 ft | 466 kts | 45° |
| 2026-05-05 13:56 | 49.23835 | 1.51953 | 37856 ft | 465 kts | 45° |
| 2026-05-05 13:56 | 49.28527 | 1.58781 | 37852 ft | 465 kts | 45° |
| 2026-05-05 13:57 | 49.33220 | 1.65628 | 37859 ft | 467 kts | 45° |
| 2026-05-05 13:57 | 49.37917 | 1.72499 | 37851 ft | 467 kts | 45° |
| 2026-05-05 13:58 | 49.42608 | 1.79383 | 37830 ft | 466 kts | 45° |
| 2026-05-05 13:58 | 49.47300 | 1.86285 | 37852 ft | 467 kts | 45° |
| 2026-05-05 13:59 | 49.54300 | 1.96621 | 37861 ft | 468 kts | 45° |
| 2026-05-05 14:00 | 49.61355 | 2.07084 | 37852 ft | 469 kts | 46° |
| 2026-05-05 14:00 | 49.66046 | 2.14067 | 37855 ft | 469 kts | 46° |
| 2026-05-05 14:01 | 49.70737 | 2.21068 | 37847 ft | 469 kts | 46° |
| 2026-05-05 14:01 | 49.75425 | 2.28085 | 37833 ft | 470 kts | 46° |
| 2026-05-05 14:02 | 49.80137 | 2.35158 | 37845 ft | 472 kts | 46° |
| 2026-05-05 14:02 | 49.84847 | 2.42247 | 37838 ft | 472 kts | 46° |
| 2026-05-05 14:03 | 49.89549 | 2.49346 | 37841 ft | 472 kts | 46° |
| 2026-05-05 14:03 | 49.94249 | 2.56458 | 37855 ft | 472 kts | 46° |
| 2026-05-05 14:04 | 49.98960 | 2.63618 | 37679 ft | 475 kts | 46° |
| 2026-05-05 14:04 | 50.01310 | 2.67195 | 37395 ft | 473 kts | 46° |
| 2026-05-05 14:04 | 50.03651 | 2.70766 | 37120 ft | 472 kts | 46° |
| 2026-05-05 14:05 | 50.05991 | 2.74337 | 36829 ft | 471 kts | 46° |
| 2026-05-05 14:05 | 50.08304 | 2.77873 | 36577 ft | 469 kts | 46° |
| 2026-05-05 14:05 | 50.10657 | 2.81477 | 36307 ft | 468 kts | 46° |
| 2026-05-05 14:05 | 50.12977 | 2.85033 | 36050 ft | 468 kts | 46° |
| 2026-05-05 14:06 | 50.15259 | 2.88538 | 35791 ft | 467 kts | 46° |
| 2026-05-05 14:06 | 50.17575 | 2.92098 | 35532 ft | 467 kts | 46° |
| 2026-05-05 14:06 | 50.19885 | 2.95656 | 35285 ft | 466 kts | 46° |
| 2026-05-05 14:06 | 50.22192 | 2.99214 | 35004 ft | 463 kts | 47° |
| 2026-05-05 14:07 | 50.24475 | 3.02741 | 34252 ft | 464 kts | 47° |
| 2026-05-05 14:07 | 50.26767 | 3.06285 | 33080 ft | 464 kts | 47° |
| 2026-05-05 14:07 | 50.29053 | 3.09823 | 32115 ft | 459 kts | 47° |
| 2026-05-05 14:07 | 50.31298 | 3.13305 | 31481 ft | 447 kts | 47° |
| 2026-05-05 14:08 | 50.33482 | 3.16697 | 30941 ft | 443 kts | 47° |
| 2026-05-05 14:08 | 50.35698 | 3.20143 | 30191 ft | 457 kts | 46° |
| 2026-05-05 14:08 | 50.37964 | 3.23669 | 29151 ft | 462 kts | 47° |
| 2026-05-05 14:08 | 50.40388 | 3.27040 | 28294 ft | 469 kts | 36° |
| 2026-05-05 14:09 | 50.43243 | 3.29534 | 27710 ft | 472 kts | 29° |
| 2026-05-05 14:09 | 50.46170 | 3.31913 | 27191 ft | 473 kts | 28° |
| 2026-05-05 14:09 | 50.49090 | 3.34250 | 26561 ft | 468 kts | 28° |
| 2026-05-05 14:09 | 50.52019 | 3.36444 | 25864 ft | 466 kts | 24° |
| 2026-05-05 14:10 | 50.54999 | 3.38460 | 25150 ft | 465 kts | 24° |
| 2026-05-05 14:10 | 50.57947 | 3.40482 | 24572 ft | 460 kts | 24° |
| 2026-05-05 14:10 | 50.60865 | 3.42499 | 23940 ft | 458 kts | 25° |
| 2026-05-05 14:10 | 50.63774 | 3.44515 | 23256 ft | 456 kts | 24° |
| 2026-05-05 14:11 | 50.66671 | 3.46526 | 22533 ft | 453 kts | 25° |
| 2026-05-05 14:11 | 50.69544 | 3.48525 | 21897 ft | 449 kts | 24° |
| 2026-05-05 14:11 | 50.72394 | 3.50508 | 21270 ft | 445 kts | 25° |
| 2026-05-05 14:11 | 50.75208 | 3.52470 | 20660 ft | 441 kts | 25° |
| 2026-05-05 14:12 | 50.78007 | 3.54423 | 20049 ft | 437 kts | 25° |
| 2026-05-05 14:12 | 50.80742 | 3.56336 | 19448 ft | 435 kts | 25° |
| 2026-05-05 14:12 | 50.83501 | 3.58266 | 18843 ft | 431 kts | 25° |
| 2026-05-05 14:12 | 50.86231 | 3.60180 | 18252 ft | 428 kts | 26° |
| 2026-05-05 14:13 | 50.89010 | 3.61852 | 17489 ft | 427 kts | 14° |
| 2026-05-05 14:13 | 50.91948 | 3.62191 | 16963 ft | 419 kts | 356° |
| 2026-05-05 14:13 | 50.94748 | 3.61204 | 16457 ft | 409 kts | 341° |
| 2026-05-05 14:13 | 50.97384 | 3.59638 | 15911 ft | 400 kts | 340° |
| 2026-05-05 14:14 | 50.99952 | 3.58059 | 15382 ft | 394 kts | 340° |
| 2026-05-05 14:14 | 51.02488 | 3.56466 | 14871 ft | 392 kts | 339° |
| 2026-05-05 14:14 | 51.05022 | 3.54852 | 14355 ft | 390 kts | 339° |
| 2026-05-05 14:14 | 51.07530 | 3.53240 | 13841 ft | 388 kts | 340° |
| 2026-05-05 14:15 | 51.10028 | 3.51626 | 13283 ft | 387 kts | 340° |
| 2026-05-05 14:15 | 51.12513 | 3.50021 | 12748 ft | 385 kts | 340° |
| 2026-05-05 14:15 | 51.14987 | 3.48421 | 12231 ft | 382 kts | 340° |
| 2026-05-05 14:15 | 51.17442 | 3.46830 | 11735 ft | 379 kts | 339° |
| 2026-05-05 14:16 | 51.19869 | 3.45256 | 11322 ft | 374 kts | 339° |
| 2026-05-05 14:16 | 51.22240 | 3.43715 | 11154 ft | 362 kts | 339° |
| 2026-05-05 14:16 | 51.24528 | 3.42212 | 10989 ft | 351 kts | 336° |
| 2026-05-05 14:16 | 51.26488 | 3.40017 | 10751 ft | 341 kts | 313° |
| 2026-05-05 14:17 | 51.27698 | 3.36874 | 10595 ft | 327 kts | 290° |
| 2026-05-05 14:17 | 51.28123 | 3.33394 | 10459 ft | 312 kts | 276° |
| 2026-05-05 14:17 | 51.28345 | 3.30035 | 10333 ft | 299 kts | 277° |
| 2026-05-05 14:17 | 51.28550 | 3.26778 | 10194 ft | 291 kts | 277° |
| 2026-05-05 14:18 | 51.28739 | 3.23604 | 10046 ft | 283 kts | 277° |
| 2026-05-05 14:18 | 51.28918 | 3.20497 | 9822 ft | 283 kts | 276° |
| 2026-05-05 14:18 | 51.29095 | 3.17326 | 9515 ft | 289 kts | 277° |
| 2026-05-05 14:18 | 51.29271 | 3.14112 | 9191 ft | 291 kts | 276° |
| 2026-05-05 14:19 | 51.29445 | 3.10893 | 8879 ft | 290 kts | 276° |
| 2026-05-05 14:19 | 51.29618 | 3.07695 | 8579 ft | 288 kts | 276° |
| 2026-05-05 14:19 | 51.29788 | 3.04521 | 8283 ft | 285 kts | 276° |
| 2026-05-05 14:19 | 51.29956 | 3.01379 | 7989 ft | 282 kts | 276° |
| 2026-05-05 14:20 | 51.30075 | 2.98261 | 7687 ft | 281 kts | 268° |
| 2026-05-05 14:20 | 51.29703 | 2.95235 | 7372 ft | 281 kts | 257° |
| 2026-05-05 14:20 | 51.29250 | 2.92168 | 7085 ft | 278 kts | 258° |
| 2026-05-05 14:20 | 51.28808 | 2.89175 | 6805 ft | 276 kts | 258° |
| 2026-05-05 14:21 | 51.28366 | 2.86204 | 6519 ft | 274 kts | 258° |
| 2026-05-05 14:21 | 51.27933 | 2.83298 | 6221 ft | 272 kts | 258° |
| 2026-05-05 14:21 | 51.27487 | 2.80324 | 5922 ft | 270 kts | 258° |
| 2026-05-05 14:21 | 51.27051 | 2.77420 | 5622 ft | 269 kts | 259° |
| 2026-05-05 14:22 | 51.26622 | 2.74551 | 5286 ft | 269 kts | 260° |
| 2026-05-05 14:22 | 51.26188 | 2.71661 | 5007 ft | 267 kts | 258° |
| 2026-05-05 14:22 | 51.25755 | 2.68807 | 4816 ft | 262 kts | 260° |
| 2026-05-05 14:22 | 51.25339 | 2.66033 | 4730 ft | 252 kts | 259° |
| 2026-05-05 14:23 | 51.24935 | 2.63365 | 4612 ft | 243 kts | 259° |
| 2026-05-05 14:23 | 51.24545 | 2.60802 | 4538 ft | 232 kts | 261° |
| 2026-05-05 14:23 | 51.24122 | 2.58366 | 4419 ft | 225 kts | 246° |
| 2026-05-05 14:23 | 51.23150 | 2.56429 | 4110 ft | 226 kts | 216° |
| 2026-05-05 14:24 | 51.21728 | 2.55494 | 3921 ft | 218 kts | 184° |
| 2026-05-05 14:24 | 51.20245 | 2.55628 | 3836 ft | 212 kts | 166° |
| 2026-05-05 14:24 | 51.18842 | 2.56055 | 3843 ft | 197 kts | 165° |
| 2026-05-05 14:24 | 51.17533 | 2.56588 | 3699 ft | 190 kts | 147° |
| 2026-05-05 14:25 | 51.16594 | 2.57928 | 3443 ft | 177 kts | 114° |
| 2026-05-05 14:25 | 51.16244 | 2.59716 | 3219 ft | 166 kts | 87° |
| 2026-05-05 14:25 | 51.16307 | 2.61527 | 3039 ft | 164 kts | 83° |
| 2026-05-05 14:25 | 51.16411 | 2.63337 | 2848 ft | 164 kts | 78° |
| 2026-05-05 14:26 | 51.16610 | 2.65124 | 2649 ft | 164 kts | 75° |
| 2026-05-05 14:26 | 51.16857 | 2.66890 | 2431 ft | 162 kts | 73° |
| 2026-05-05 14:26 | 51.17119 | 2.68627 | 2212 ft | 160 kts | 72° |
| 2026-05-05 14:26 | 51.17384 | 2.70362 | 2013 ft | 162 kts | 72° |
| 2026-05-05 14:27 | 51.17649 | 2.72110 | 1790 ft | 162 kts | 72° |
| 2026-05-05 14:27 | 51.17913 | 2.73852 | 1571 ft | 161 kts | 72° |
| 2026-05-05 14:27 | 51.18169 | 2.75540 | 1399 ft | 156 kts | 70° |
| 2026-05-05 14:27 | 51.18420 | 2.77187 | 1168 ft | 148 kts | 72° |
| 2026-05-05 14:28 | 51.18654 | 2.78732 | 964 ft | 140 kts | 71° |
| 2026-05-05 14:28 | 51.18883 | 2.80233 | 762 ft | 140 kts | 69° |
| 2026-05-05 14:28 | 51.19113 | 2.81735 | 561 ft | 139 kts | 69° |
| 2026-05-05 14:28 | 51.19338 | 2.83227 | 367 ft | 138 kts | 74° |
| 2026-05-05 14:29 | 51.19553 | 2.84723 | 223 ft | 139 kts | 73° |
| 2026-05-05 14:29 | 51.19795 | 2.86213 | 38 ft | 136 kts | 76° |
| 2026-05-05 14:29 | 51.19985 | 2.87469 | 27 ft | 88 kts | 77° |
| 2026-05-05 14:29 | 51.20084 | 2.88126 | 24 ft | 47 kts | 75° |
| 2026-05-05 14:30 | 51.20157 | 2.88325 | 23 ft | 11 kts | 351° |
| 2026-05-05 14:30 | 51.20229 | 2.88266 | 28 ft | 12 kts | 306° |
| 2026-05-05 14:30 | 51.20243 | 2.88132 | 25 ft | 13 kts | 266° |
| 2026-05-05 14:30 | 51.20231 | 2.87978 | 25 ft | 15 kts | 256° |
| 2026-05-05 14:31 | 51.20205 | 2.87805 | 26 ft | 17 kts | 256° |
| 2026-05-05 14:31 | 51.20177 | 2.87613 | 25 ft | 19 kts | 257° |
| 2026-05-05 14:31 | 51.20145 | 2.87401 | 26 ft | 21 kts | 256° |
| 2026-05-05 14:31 | 51.20117 | 2.87226 | 26 ft | 9 kts | 255° |
| 2026-05-05 14:32 | 51.20154 | 2.87157 | 28 ft | 10 kts | 347° |
| 2026-05-05 14:32 | 51.20230 | 2.87131 | 25 ft | 12 kts | 342° |
| 2026-05-05 14:32 | 51.20267 | 2.87027 | 26 ft | 9 kts | 298° |
| 2026-05-05 14:32 | 51.20314 | 2.86995 | 25 ft | 7 kts | 347° |
| 2026-05-05 14:33 | 51.20331 | 2.86989 | 27 ft | 0 kts | 347° |